• Join FlightAware (Why Join?)
  • Login
  • US Flag 
11:40PM EDT


 

Airport Tracker/Info


-or-


 

Live Flight TrackerFlight Track Log ✈ FSR411 ✈ 27-Apr-2014 ✈ KLCI - KCMI

Flight Track Log - Related Links

Times and Time Zones

All times are in EDT time to prevent confusion due to time zone crossing. See the FSR411 flight status page for this flight to view local times or setup timezone preferences in your user account.

Time Position Orientation Groundspeed Altitude Reporting Facility
EDT Latitude Longitude Course Direction KTS MPH feet Rate Location/Type
04:48PM 43.5667 -71.4500 245° Southwest 184 212 2,000  Level KA90
04:48PM 43.5500 -71.5000 245° Southwest 203 234 4,000 3,000 Climbing KA90
04:49PM 43.5333 -71.5833 255° West 230 265 6,800 3,060 Climbing KA90
04:50PM 43.5289 -71.6358 263° West 234 269 8,500 2,880 Climbing Boston Center
04:51PM 43.5147 -71.7453 260° West 288 331 11,500 3,300 Climbing Boston Center
04:52PM 43.4964 -71.8792 259° West 329 379 15,300 3,360 Climbing Boston Center
04:53PM 43.4775 -72.0139 259° West 375 432 18,500 3,120 Climbing Boston Center
04:54PM 43.4578 -72.1617 260° West 390 449 21,700 2,400 Climbing Boston Center
04:55PM 43.4350 -72.3244 259° West 429 494 23,500 2,280 Climbing Boston Center
04:56PM 43.4125 -72.4906 259° West 443 510 26,400 2,760 Climbing Boston Center
04:57PM 43.3900 -72.6525 259° West 438 504 29,200 3,120 Climbing Boston Center
04:58PM 43.3622 -72.8414 259° West 427 491 32,800 2,820 Climbing Boston Center
04:59PM 43.3417 -72.9881 259° West 398 458 35,100 1,860 Climbing Boston Center
05:00PM 43.3206 -73.1333 259° West 394 453 36,600 1,260 Climbing Boston Center
05:01PM 43.3000 -73.2772 259° West 391 450 37,700 960 Climbing Boston Center
05:02PM 43.2786 -73.4189 258° West 392 451 38,600 840 Climbing Boston Center
05:03PM 43.2558 -73.5722 259° West 400 460 39,500 960 Climbing Boston Center
05:04PM 43.2314 -73.7303 258° West 403 464 40,600 960 Climbing Boston Center
05:05PM 43.2097 -73.8786 259° West 402 463 41,500 1,020 Climbing Boston Center
05:06PM 43.1828 -74.0539 258° West 392 451 42,700 720 Climbing Boston Center
05:07PM 43.1600 -74.1989 258° West 391 450 43,000 120 Climbing Boston Center
05:08PM 43.1364 -74.3481 258° West 398 458 43,000  Level Boston Center
05:09PM 43.1122 -74.5006 258° West 406 467 43,000  Level Boston Center
05:11PM 43.0614 -74.8211 258° West 428 493 43,000  Level Boston Center
05:12PM 43.0347 -74.9842 257° West 432 497 43,000  Level Boston Center
05:13PM 43.0081 -75.1464 257° West 435 501 43,000  Level Boston Center
05:15PM 42.9506 -75.4928 255° West 422 486 43,000  Level Cleveland Center
05:16PM 42.9297 -75.6189 257° West 423 487 43,000  Level Boston Center
05:17PM 42.8981 -75.8075 257° West 423 487 43,000  Level Boston Center
05:18PM 42.8703 -75.9636 256° West 423 487 43,000  Level Boston Center
05:19PM 42.8431 -76.1211 257° West 424 488 43,000  Level Boston Center
05:20PM 42.8150 -76.2781 256° West 425 489 43,000  Level Boston Center
05:21PM 42.7892 -76.4303 257° West 425 489 43,000  Level Boston Center
05:23PM 42.7617 -76.5828 256° West 421 484 43,000  Level Boston Center
05:24PM 42.7339 -76.7358 256° West 420 483 43,000  Level Boston Center
05:25PM 42.7011 -76.9186 256° West 419 482 43,000  Level Boston Center
05:26PM 42.6725 -77.0714 256° West 418 481 43,000  Level Cleveland Center
05:27PM 42.6392 -77.2553 256° West 418 481 43,000  Level Cleveland Center
05:28PM 42.6106 -77.4064 256° West 418 481 43,000  Level Cleveland Center
05:29PM 42.5808 -77.5631 256° West 418 481 43,000  Level Cleveland Center
05:30PM 42.5522 -77.7164 256° West 418 481 43,000  Level Cleveland Center
05:31PM 42.5211 -77.8794 256° West 422 486 43,000  Level Cleveland Center
05:32PM 42.4911 -78.0331 255° West 422 486 43,000  Level Cleveland Center
05:33PM 42.4617 -78.1869 256° West 422 486 43,000  Level Cleveland Center
05:34PM 42.4319 -78.3383 255° West 422 486 43,000  Level Cleveland Center
05:35PM 42.3972 -78.5150 255° West 407 468 43,000  Level Cleveland Center
05:36PM 42.3681 -78.6583 255° West 399 459 43,000  Level Cleveland Center
05:37PM 42.3411 -78.7992 256° West 395 455 43,000  Level Cleveland Center
05:38PM 42.3108 -78.9522 255° West 394 453 43,000  Level Cleveland Center
05:39PM 42.2822 -79.0933 255° West 393 452 43,000  Level Cleveland Center
05:40PM 42.2539 -79.2331 255° West 392 451 43,000  Level Cleveland Center
05:41PM 42.2247 -79.3714 254° West 390 449 43,000  Level Cleveland Center
05:42PM 42.1889 -79.5414 254° West 395 455 43,000  Level Cleveland Center
05:43PM 42.1594 -79.6856 255° West 404 465 43,000  Level Cleveland Center
05:44PM 42.1292 -79.8275 254° West 403 464 43,000  Level Cleveland Center
05:45PM 42.1061 -79.9903 259° West 395 455 43,000  Level Cleveland Center
05:46PM 42.0886 -80.1425 261° West 400 460 43,000  Level Cleveland Center
05:47PM 42.0667 -80.2908 259° West 402 463 43,000  Level Cleveland Center
05:49PM 42.0356 -80.4367 254° West 405 466 43,000  Level Cleveland Center
05:50PM 42.0067 -80.5817 255° West 403 464 43,000  Level Cleveland Center
05:51PM 41.9772 -80.7244 255° West 399 459 43,000  Level Cleveland Center
05:52PM 41.9481 -80.8689 255° West 398 458 43,000  Level Cleveland Center
05:53PM 41.9183 -81.0111 254° West 396 456 43,000  Level Cleveland Center
05:54PM 41.8847 -81.1800 255° West 397 457 43,000  Level Cleveland Center
05:55PM 41.8544 -81.3242 254° West 398 458 43,000  Level Cleveland Center
05:56PM 41.8247 -81.4672 254° West 398 458 43,000  Level Cleveland Center
05:57PM 41.7953 -81.6100 255° West 398 458 43,000  Level Cleveland Center
05:58PM 41.7656 -81.7522 254° West 397 457 43,000  Level Cleveland Center
05:59PM 41.7347 -81.8950 254° West 398 458 43,000  Level Cleveland Center
06:00PM 41.6994 -82.0628 254° West 398 458 43,000  Level Cleveland Center
06:01PM 41.6708 -82.1972 254° West 400 460 43,000  Level Cleveland Center
06:02PM 41.6369 -82.3508 254° West 400 460 43,000  Level Cleveland Center
06:03PM 41.6058 -82.4947 254° West 401 461 43,000  Level Cleveland Center
06:04PM 41.5736 -82.6372 253° West 400 460 43,000  Level Cleveland Center
06:05PM 41.5428 -82.7775 254° West 395 455 43,000  Level Cleveland Center
06:06PM 41.5067 -82.9383 253° West 388 447 43,000  Level Cleveland Center
06:07PM 41.4775 -83.0719 254° West 375 432 43,000  Level Cleveland Center
06:08PM 41.4500 -83.1933 253° West 370 426 43,000  Level Cleveland Center
06:09PM 41.4208 -83.3219 253° West 367 422 43,000  Level Cleveland Center
06:10PM 41.3908 -83.4553 253° West 372 428 43,000  Level Cleveland Center
06:11PM 41.3528 -83.6178 253° West 378 435 43,000  Level Cleveland Center
06:12PM 41.3228 -83.7536 254° West 380 437 43,000  Level Cleveland Center
06:13PM 41.2903 -83.8872 252° West 381 438 43,000 -420 Level Cleveland Center
06:14PM 41.2550 -84.0392 253° West 381 438 42,200 -1,140 Descending Cleveland Center
06:15PM 41.2236 -84.1739 253° West 381 438 40,700 -1,500 Descending Cleveland Center
06:16PM 41.1925 -84.3058 253° West 379 436 39,200 -1,500 Descending Cleveland Center
06:17PM 41.1628 -84.4328 253° West 366 421 37,600 -1,260 Descending Cleveland Center
06:19PM 41.1311 -84.5639 252° West 369 425 36,600 -1,080 Descending Cleveland Center
06:19PM 41.1111 -84.6442 252° West 377 434 36,000 -420 Descending Chicago Center
06:20PM 41.0783 -84.7756 252° West 378 435 36,000  Level Chicago Center
06:21PM 41.0469 -84.9092 253° West 378 435 36,000  Level Chicago Center
06:22PM 41.0139 -85.0422 252° West 378 435 36,000  Level Chicago Center
06:23PM 40.9814 -85.1756 252° West 378 435 36,000 -540 Level Chicago Center
06:24PM 40.9431 -85.3100 249° West 383 441 35,000 -960 Descending Chicago Center
06:25PM 40.8967 -85.4719 249° West 388 447 34,100 -1,140 Descending Chicago Center
06:26PM 40.8569 -85.6078 249° West 390 449 32,700 -1,020 Descending Chicago Center
06:27PM 40.8164 -85.7450 249° West 399 459 32,000 -360 Descending Chicago Center
06:28PM 40.7761 -85.8861 249° West 403 464 32,000 -840 Level Chicago Center
06:29PM 40.7347 -86.0231 248° West 405 466 30,300 -1,920 Descending Chicago Center
06:30PM 40.6892 -86.1769 249° West 411 473 28,100 -2,040 Descending Chicago Center
06:31PM 40.6467 -86.3206 249° West 420 483 26,100 -1,980 Descending Chicago Center
06:32PM 40.6064 -86.4567 249° West 407 468 24,100 -1,020 Descending Chicago Center
06:34PM 40.5661 -86.5919 249° West 404 465 24,000 -660 Descending Chicago Center
06:35PM 40.5158 -86.7536 248° West 401 461 22,800 -1,560 Descending Chicago Center
06:36PM 40.4764 -86.8839 248° West 392 451 20,800 -1,980 Descending Chicago Center
06:37PM 40.4339 -87.0208 248° West 403 464 18,800 -2,040 Descending Chicago Center
06:38PM 40.3933 -87.1561 249° West 405 466 16,700 -2,040 Descending Chicago Center
06:39PM 40.3514 -87.2894 248° West 400 460 14,700 -2,100 Descending Chicago Center
06:40PM 40.3067 -87.4342 248° West 360 414 12,400 -1,800 Descending Chicago Center
06:41PM 40.2739 -87.5397 248° West 341 392 11,000 -780 Descending Chicago Center
06:42PM 40.2397 -87.6483 248° West 330 380 10,800 -660 Descending Chicago Center
06:43PM 40.2069 -87.7536 248° West 320 368 9,700 -1,080 Descending Chicago Center
06:44PM 40.1781 -87.8450 248° West 276 318 8,600 -1,200 Descending Chicago Center
06:45PM 40.1494 -87.9364 248° West 270 311 7,300 -1,560 Descending Chicago Center
06:46PM 40.1386 -88.0403 262° West 286 329 5,500 -1,740 Descending Chicago Center
06:47PM 40.1281 -88.1558 263° West 285 328 3,800 -1,260 Descending Chicago Center
06:48PM 40.1333 -88.2511 274° West 275 316 2,900 -900 Descending Chicago Center
06:50PM 40.0333 -88.2667 252° West  Level FlightAware Approximate
06:57PM 40.0388 -88.2778 252° West  Level Estimated
06:58PM 40.0388 -88.2778 252° West  Level Estimated
06:59PM 40.0388 -88.2778 252° West  Level Estimated